Time;durP1;ratioP1;P1;durP2;ratioP2;P2;SDS_P1;SDS_P2;PMS_P1;PMS_P2;Temp;Humidity;BMP_temperature;BMP_pressure;BME280_temperature;BME280_humidity;BME280_pressure;Samples;Min_cycle;Max_cycle;Signal;HPM_P1;HPM_P2
2022/04/12 00:01:27;;;;;;;2.05;1.40;;;4.80;87.50;;;;;;605031;235;27144;-69
2022/04/12 00:03:55;;;;;;;4.93;1.67;;;4.70;86.80;;;;;;608319;236;26617;-69
2022/04/12 00:06:23;;;;;;;2.33;1.62;;;4.70;86.80;;;;;;603596;236;26665;-69
2022/04/12 00:08:50;;;;;;;3.00;1.48;;;4.70;86.80;;;;;;603262;238;26586;-69
2022/04/12 00:11:18;;;;;;;1.83;1.40;;;4.70;87.10;;;;;;604692;236;26606;-68
2022/04/12 00:13:47;;;;;;;1.50;1.33;;;4.70;86.10;;;;;;601869;238;26643;-68
2022/04/12 00:16:14;;;;;;;2.75;1.70;;;4.70;86.10;;;;;;602822;238;26888;-68
2022/04/12 00:21:14;;;;;;;2.00;1.70;;;4.70;89.90;;;;;;602958;235;26638;-68
2022/04/12 00:23:42;;;;;;;1.60;1.50;;;4.60;88.20;;;;;;603502;236;26623;-68
2022/04/12 00:26:10;;;;;;;3.08;1.75;;;4.60;88.10;;;;;;604562;237;26869;-68
2022/04/12 00:28:37;;;;;;;2.10;1.60;;;4.60;88.50;;;;;;603114;237;26607;-68
2022/04/12 00:31:04;;;;;;;1.92;1.67;;;4.60;90.10;;;;;;601796;235;26857;-68
2022/04/12 00:33:31;;;;;;;1.62;1.52;;;4.60;87.10;;;;;;603649;236;26573;-68
2022/04/12 00:36:00;;;;;;;2.58;1.40;;;4.60;88.40;;;;;;602709;237;26645;-68
2022/04/12 00:38:27;;;;;;;1.90;1.60;;;4.60;89.60;;;;;;604277;235;26578;-68
2022/04/12 00:40:54;;;;;;;1.58;1.40;;;4.60;89.60;;;;;;610810;235;26570;-68
2022/04/12 00:43:22;;;;;;;1.98;1.60;;;4.60;88.90;;;;;;606343;234;26733;-68
2022/04/12 00:45:49;;;;;;;1.50;1.40;;;4.60;88.90;;;;;;606993;234;26683;-68
2022/04/12 00:48:17;;;;;;;2.00;1.58;;;4.70;90.10;;;;;;603461;236;26632;-68
2022/04/12 00:50:44;;;;;;;1.50;1.40;;;4.70;87.40;;;;;;604320;238;27279;-68
2022/04/12 00:53:11;;;;;;;1.55;1.45;;;4.70;90.20;;;;;;607091;236;26596;-69
2022/04/12 00:55:38;;;;;;;2.03;1.73;;;4.70;90.80;;;;;;601814;237;26830;-68
2022/04/12 00:58:07;;;;;;;1.60;1.30;;;4.80;88.80;;;;;;610939;235;26593;-68
2022/04/12 01:00:34;;;;;;;1.83;1.55;;;4.80;89.40;;;;;;603084;236;26596;-68
2022/04/12 01:03:01;;;;;;;2.10;1.90;;;4.80;89.90;;;;;;603461;235;26819;-68
2022/04/12 01:05:29;;;;;;;1.90;1.73;;;4.80;87.80;;;;;;605764;236;26579;-68
2022/04/12 01:07:56;;;;;;;3.12;1.60;;;4.90;86.60;;;;;;610140;236;26849;-68
2022/04/12 01:10:24;;;;;;;1.58;1.48;;;4.90;85.70;;;;;;610246;235;26670;-68
2022/04/12 01:12:51;;;;;;;1.48;1.37;;;5.00;86.90;;;;;;602046;235;26644;-69
2022/04/12 01:15:21;;;;;;;1.90;1.35;;;5.00;89.80;;;;;;608335;236;26591;-68
2022/04/12 01:17:49;;;;;;;2.03;1.50;;;4.90;90.30;;;;;;607132;235;26622;-68
2022/04/12 01:20:17;;;;;;;2.08;1.60;;;4.90;90.30;;;;;;607689;235;26596;-68
2022/04/12 01:23:02;;;;;;;1.48;1.37;;;4.80;90.60;;;;;;602540;237;26638;-68
2022/04/12 01:25:29;;;;;;;1.70;1.60;;;4.90;87.40;;;;;;605607;235;26870;-68
2022/04/12 01:27:57;;;;;;;1.65;1.55;;;5.00;87.10;;;;;;611971;234;26618;-68
2022/04/12 01:30:25;;;;;;;2.25;1.70;;;4.90;87.10;;;;;;605818;235;26592;-68
2022/04/12 01:32:53;;;;;;;1.60;1.50;;;4.90;87.40;;;;;;603895;235;26888;-68
2022/04/12 01:35:22;;;;;;;2.17;1.67;;;4.90;87.40;;;;;;603870;236;26621;-68
2022/04/12 01:37:49;;;;;;;2.78;2.00;;;4.90;86.80;;;;;;608693;236;26593;-68
2022/04/12 01:40:17;;;;;;;1.70;1.60;;;4.90;87.00;;;;;;605357;236;26943;-68
2022/04/12 01:42:46;;;;;;;2.70;1.55;;;4.80;88.40;;;;;;601631;236;26639;-68
2022/04/12 01:45:13;;;;;;;1.67;1.58;;;4.80;88.40;;;;;;604363;235;26846;-68
2022/04/12 01:47:40;;;;;;;2.12;1.45;;;4.80;90.50;;;;;;608751;233;26684;-68
2022/04/12 01:50:07;;;;;;;2.00;1.60;;;4.80;88.10;;;;;;602765;238;26893;-68
2022/04/12 01:52:35;;;;;;;1.83;1.67;;;4.70;87.00;;;;;;604290;237;26579;-68
2022/04/12 01:55:02;;;;;;;1.70;1.60;;;4.70;88.40;;;;;;609720;235;26847;-68
2022/04/12 01:57:30;;;;;;;1.67;1.33;;;4.60;89.10;;;;;;606237;236;26649;-69
2022/04/12 01:59:57;;;;;;;2.08;1.45;;;4.60;87.70;;;;;;606418;235;26814;-68
2022/04/12 02:02:24;;;;;;;1.98;1.80;;;4.50;90.10;;;;;;602438;236;26620;-68
2022/04/12 02:04:51;;;;;;;2.60;1.80;;;4.50;90.60;;;;;;602387;236;26553;-68
2022/04/12 02:07:19;;;;;;;1.48;1.33;;;4.50;89.80;;;;;;602983;235;26606;-68
2022/04/12 02:09:47;;;;;;;1.67;1.55;;;4.50;89.90;;;;;;604894;238;26582;-68
2022/04/12 02:12:14;;;;;;;1.67;1.58;;;4.50;89.70;;;;;;604559;236;26566;-68
2022/04/12 02:14:41;;;;;;;1.55;1.45;;;4.50;89.40;;;;;;606990;236;26807;-68
2022/04/12 02:17:09;;;;;;;1.90;1.80;;;4.50;91.30;;;;;;602796;235;26606;-68
2022/04/12 02:19:37;;;;;;;1.83;1.73;;;4.50;88.00;;;;;;610143;236;26660;-68
2022/04/12 02:22:07;;;;;;;2.40;1.70;;;4.40;87.90;;;;;;606942;235;26568;-68
2022/04/12 02:24:34;;;;;;;2.10;1.77;;;4.30;90.70;;;;;;604538;235;27399;-68
2022/04/12 02:27:00;;;;;;;1.65;1.52;;;4.30;90.70;;;;;;608620;234;27244;-68
2022/04/12 02:29:28;;;;;;;2.58;1.87;;;4.20;90.70;;;;;;604907;235;26622;-68
2022/04/12 02:31:56;;;;;;;3.30;1.83;;;4.20;89.60;;;;;;610396;235;26625;-68
2022/04/12 02:34:24;;;;;;;1.85;1.60;;;4.20;89.40;;;;;;602833;236;26632;-68
2022/04/12 02:36:51;;;;;;;2.30;1.70;;;4.20;90.30;;;;;;607924;235;26631;-68
2022/04/12 02:39:18;;;;;;;1.80;1.70;;;4.10;92.00;;;;;;604608;237;26810;-68
2022/04/12 02:41:45;;;;;;;1.55;1.45;;;4.10;90.20;;;;;;604633;238;26593;-68
2022/04/12 02:44:12;;;;;;;2.03;1.83;;;4.20;88.30;;;;;;610966;235;26606;-68
2022/04/12 02:46:41;;;;;;;2.10;1.87;;;4.20;90.30;;;;;;601583;236;26671;-68
2022/04/12 02:49:08;;;;;;;2.47;1.85;;;4.10;90.20;;;;;;601586;238;26645;-68
2022/04/12 02:51:36;;;;;;;2.15;1.70;;;4.10;91.50;;;;;;601547;237;26631;-68
2022/04/12 02:54:04;;;;;;;2.22;2.03;;;4.10;90.30;;;;;;604327;236;26631;-68
2022/04/12 02:56:31;;;;;;;3.12;1.90;;;4.10;90.30;;;;;;607184;235;26852;-68
2022/04/12 02:58:59;;;;;;;1.90;1.80;;;4.20;90.40;;;;;;608206;234;26639;-68
2022/04/12 03:01:26;;;;;;;2.28;1.55;;;4.20;89.80;;;;;;612353;234;26865;-68
2022/04/12 03:03:53;;;;;;;1.95;1.80;;;4.20;90.60;;;;;;602927;237;26596;-68
2022/04/12 03:06:20;;;;;;;2.17;1.67;;;4.10;91.30;;;;;;605358;235;26606;-68
2022/04/12 03:08:48;;;;;;;2.08;1.55;;;4.00;90.60;;;;;;602091;239;26586;-68
2022/04/12 03:11:16;;;;;;;2.08;1.60;;;4.00;91.30;;;;;;604399;238;26634;-68
2022/04/12 03:13:43;;;;;;;1.70;1.60;;;4.00;91.30;;;;;;612471;235;26864;-68
2022/04/12 03:16:10;;;;;;;1.92;1.70;;;4.00;90.40;;;;;;603437;235;26615;-68
2022/04/12 03:18:38;;;;;;;1.98;1.87;;;4.00;90.90;;;;;;604819;238;27251;-68
2022/04/12 03:21:06;;;;;;;1.75;1.60;;;3.90;91.10;;;;;;604884;238;26609;-68
2022/04/12 03:23:34;;;;;;;1.92;1.70;;;3.90;90.50;;;;;;610107;236;26648;-69
2022/04/12 03:26:02;;;;;;;1.80;1.60;;;3.90;90.40;;;;;;603628;235;26606;-69
2022/04/12 03:28:29;;;;;;;1.70;1.60;;;3.90;90.30;;;;;;602334;236;26969;-68
2022/04/12 03:30:57;;;;;;;2.08;1.85;;;3.70;91.40;;;;;;610559;235;26597;-69
2022/04/12 03:33:24;;;;;;;2.25;1.67;;;3.80;91.10;;;;;;602832;236;26887;-69
2022/04/12 03:35:52;;;;;;;1.95;1.60;;;3.70;90.70;;;;;;604084;234;26594;-69
2022/04/12 03:38:20;;;;;;;1.73;1.62;;;3.70;90.30;;;;;;605614;236;26612;-69
2022/04/12 03:40:48;;;;;;;2.60;1.60;;;3.70;91.40;;;;;;609862;236;26616;-68
2022/04/12 03:43:15;;;;;;;2.00;1.60;;;3.60;91.30;;;;;;605658;235;26834;-69
2022/04/12 03:45:42;;;;;;;2.40;1.58;;;3.60;91.90;;;;;;605203;232;26604;-70
2022/04/12 03:48:10;;;;;;;1.55;1.50;;;3.60;91.20;;;;;;609718;235;26839;-69
2022/04/12 03:50:38;;;;;;;2.08;1.60;;;3.40;91.70;;;;;;609905;235;26590;-69
2022/04/12 03:53:06;;;;;;;2.47;1.92;;;3.40;92.10;;;;;;602867;235;26637;-70
2022/04/12 03:55:35;;;;;;;1.60;1.50;;;3.40;92.10;;;;;;604516;236;26571;-68
2022/04/12 03:58:01;;;;;;;11.55;2.50;;;3.40;92.30;;;;;;604413;236;26581;-69
2022/04/12 04:00:28;;;;;;;1.80;1.70;;;3.30;92.60;;;;;;605381;235;26846;-69
2022/04/12 04:02:55;;;;;;;2.55;1.80;;;3.30;91.10;;;;;;601558;236;26630;-69
2022/04/12 04:05:23;;;;;;;1.77;1.40;;;3.30;91.30;;;;;;601826;237;26836;-69
2022/04/12 04:07:50;;;;;;;1.90;1.62;;;3.40;90.60;;;;;;607206;235;26873;-69
2022/04/12 04:10:18;;;;;;;1.70;1.60;;;3.40;92.40;;;;;;606028;235;26602;-70
2022/04/12 04:12:45;;;;;;;1.60;1.50;;;3.40;92.60;;;;;;602817;237;27216;-70
2022/04/12 04:15:14;;;;;;;2.03;1.50;;;3.30;92.70;;;;;;603943;237;26586;-70
2022/04/12 04:17:41;;;;;;;1.80;1.70;;;3.30;91.70;;;;;;603479;235;26605;-70
2022/04/12 04:20:10;;;;;;;2.67;2.08;;;3.20;91.70;;;;;;602253;235;26576;-70
2022/04/12 04:22:37;;;;;;;3.28;2.10;;;3.20;92.60;;;;;;603902;236;26588;-70
2022/04/12 04:25:04;;;;;;;2.12;1.98;;;3.30;93.50;;;;;;608098;236;26578;-70
2022/04/12 04:27:34;;;;;;;1.90;1.60;;;3.30;94.00;;;;;;608246;236;26617;-69
2022/04/12 04:29:59;;;;;;;3.22;1.67;;;3.30;93.60;;;;;;603700;235;27087;-69
2022/04/12 04:32:27;;;;;;;2.35;1.87;;;3.40;92.40;;;;;;603848;236;26582;-69
2022/04/12 04:34:55;;;;;;;1.70;1.60;;;3.50;92.00;;;;;;603448;236;26593;-69
2022/04/12 04:37:23;;;;;;;3.78;1.90;;;3.40;91.90;;;;;;608714;236;26664;-69
2022/04/12 04:39:50;;;;;;;2.10;1.90;;;3.50;91.80;;;;;;606136;235;26588;-69
2022/04/12 04:42:17;;;;;;;2.08;1.98;;;3.60;91.60;;;;;;603735;235;26895;-69
2022/04/12 04:44:44;;;;;;;2.20;1.87;;;3.60;92.10;;;;;;609827;236;26637;-69
2022/04/12 04:47:11;;;;;;;1.87;1.55;;;3.60;91.40;;;;;;606022;235;26662;-69
2022/04/12 04:49:39;;;;;;;3.05;1.85;;;3.70;91.40;;;;;;606455;234;26640;-69
2022/04/12 04:52:07;;;;;;;1.83;1.73;;;3.70;91.40;;;;;;608139;235;26615;-69
2022/04/12 04:54:34;;;;;;;2.47;1.90;;;3.70;91.40;;;;;;607025;236;27273;-69
2022/04/12 04:57:01;;;;;;;1.77;1.67;;;3.70;91.60;;;;;;606445;235;26694;-69
2022/04/12 04:59:28;;;;;;;2.83;1.85;;;3.70;92.00;;;;;;602951;238;26788;-68
2022/04/12 05:01:56;;;;;;;3.10;1.67;;;3.70;92.90;;;;;;602722;238;26657;-68
2022/04/12 05:04:23;;;;;;;1.83;1.73;;;3.80;92.10;;;;;;601591;238;26940;-68
2022/04/12 05:06:50;;;;;;;2.60;2.17;;;3.80;92.50;;;;;;601531;239;26623;-69
2022/04/12 05:09:17;;;;;;;2.55;2.15;;;3.80;92.10;;;;;;603142;238;26594;-69
2022/04/12 05:11:45;;;;;;;3.67;2.20;;;3.80;91.10;;;;;;604120;232;26571;-69
2022/04/12 05:14:13;;;;;;;2.30;2.10;;;3.80;91.10;;;;;;601541;239;26599;-68
2022/04/12 05:16:40;;;;;;;2.00;1.90;;;3.80;91.10;;;;;;601580;238;26875;-69
2022/04/12 05:19:08;;;;;;;2.80;1.92;;;3.80;92.30;;;;;;603222;236;26624;-69
2022/04/12 05:21:35;;;;;;;2.40;2.03;;;3.90;91.40;;;;;;611288;233;26952;-69
2022/04/12 05:24:04;;;;;;;4.15;2.28;;;3.90;91.20;;;;;;613750;234;26667;-69
2022/04/12 05:26:30;;;;;;;3.60;2.10;;;4.00;91.30;;;;;;613350;234;26615;-67
2022/04/12 05:28:56;;;;;;;3.53;2.10;;;4.10;90.60;;;;;;607345;234;26670;-67
2022/04/12 05:31:24;;;;;;;2.65;2.45;;;4.20;91.20;;;;;;602746;238;26633;-68
2022/04/12 05:33:51;;;;;;;2.75;2.37;;;4.20;90.00;;;;;;602731;236;26953;-67
2022/04/12 05:36:18;;;;;;;3.87;2.60;;;4.40;88.80;;;;;;608487;234;26604;-69
2022/04/12 05:38:45;;;;;;;2.40;2.00;;;4.50;89.70;;;;;;609673;236;26858;-68
2022/04/12 05:41:13;;;;;;;3.12;2.58;;;4.60;89.90;;;;;;607340;236;26559;-68
2022/04/12 05:43:41;;;;;;;5.97;2.30;;;4.80;90.40;;;;;;602804;236;26594;-69
2022/04/12 05:46:08;;;;;;;2.45;2.25;;;4.80;90.30;;;;;;604633;235;26849;-68
2022/04/12 05:48:36;;;;;;;2.40;2.20;;;4.90;91.70;;;;;;602542;238;26593;-68
2022/04/12 05:51:04;;;;;;;3.72;2.33;;;5.10;88.60;;;;;;603936;238;26587;-68
2022/04/12 05:53:31;;;;;;;4.22;2.55;;;5.10;88.50;;;;;;603207;235;26623;-69
2022/04/12 05:55:59;;;;;;;3.53;2.78;;;5.20;89.20;;;;;;603943;235;26593;-70
2022/04/12 05:58:26;;;;;;;3.80;2.80;;;5.30;91.20;;;;;;602061;236;26886;-70
2022/04/12 06:00:53;;;;;;;2.70;2.50;;;5.40;90.30;;;;;;604553;235;26588;-70
2022/04/12 06:03:20;;;;;;;4.03;2.58;;;5.40;88.80;;;;;;602942;237;26854;-70
2022/04/12 06:05:49;;;;;;;2.72;2.28;;;5.70;90.70;;;;;;605343;236;26681;-68
2022/04/12 06:08:16;;;;;;;2.85;2.65;;;5.90;90.90;;;;;;602135;238;26652;-66
2022/04/12 06:10:43;;;;;;;11.52;2.83;;;5.80;90.90;;;;;;604553;236;26895;-66
2022/04/12 06:13:11;;;;;;;3.12;2.65;;;6.00;89.00;;;;;;603436;236;26591;-67
2022/04/12 06:15:38;;;;;;;105.93;20.58;;;6.10;91.20;;;;;;604451;236;26823;-69
2022/04/12 06:18:06;;;;;;;1999.90;245.45;;;6.20;87.00;;;;;;603611;236;26590;-67
2022/04/12 06:20:33;;;;;;;431.23;60.78;;;6.30;89.60;;;;;;605405;236;26640;-68
2022/04/12 06:23:01;;;;;;;124.80;25.12;;;6.50;84.90;;;;;;603162;235;26619;-69
2022/04/12 06:25:29;;;;;;;128.73;24.10;;;6.60;87.20;;;;;;605074;236;26587;-68
2022/04/12 06:27:58;;;;;;;44.60;11.05;;;6.70;86.20;;;;;;606987;235;26599;-69
2022/04/12 06:30:25;;;;;;;45.15;12.10;;;6.70;86.30;;;;;;605615;235;26594;-70
2022/04/12 06:32:53;;;;;;;36.60;10.20;;;6.90;79.90;;;;;;608017;233;26878;-69
2022/04/12 06:35:20;;;;;;;34.70;9.02;;;7.00;85.50;;;;;;607089;235;26655;-70
2022/04/12 06:37:47;;;;;;;30.40;8.75;;;7.10;82.00;;;;;;604526;234;26596;-70
2022/04/12 06:40:15;;;;;;;12.93;4.62;;;7.30;80.60;;;;;;602447;235;26625;-68
2022/04/12 06:42:43;;;;;;;26.02;7.97;;;7.30;80.70;;;;;;603421;237;26665;-69
2022/04/12 06:45:12;;;;;;;6.60;3.37;;;7.40;79.20;;;;;;604178;235;26630;-68
2022/04/12 06:47:40;;;;;;;9.15;3.95;;;7.50;79.90;;;;;;602307;237;26589;-68
2022/04/12 06:50:08;;;;;;;6.72;2.90;;;7.60;77.70;;;;;;602436;232;26996;-70
2022/04/12 06:52:35;;;;;;;8.48;3.60;;;7.70;78.30;;;;;;604965;236;26556;-69
2022/04/12 06:55:02;;;;;;;6.45;3.03;;;7.80;76.60;;;;;;604079;238;26551;-63
2022/04/12 06:57:32;;;;;;;5.07;2.90;;;7.90;78.70;;;;;;609272;236;26857;-63
2022/04/12 06:59:59;;;;;;;7.75;3.95;;;8.00;79.60;;;;;;610113;235;26904;-63
2022/04/12 07:02:26;;;;;;;5.75;3.53;;;8.10;79.50;;;;;;602933;236;26586;-63
2022/04/12 07:04:53;;;;;;;7.18;3.00;;;8.20;76.90;;;;;;601617;233;26586;-64
2022/04/12 07:07:21;;;;;;;3.97;3.00;;;8.40;74.40;;;;;;602005;236;26601;-64
2022/04/12 07:09:49;;;;;;;2.42;2.22;;;8.50;82.10;;;;;;610129;235;26583;-62
2022/04/12 07:12:16;;;;;;;6.68;3.53;;;8.50;82.30;;;;;;606983;235;26993;-62
2022/04/12 07:14:43;;;;;;;8.23;3.50;;;8.60;74.40;;;;;;606504;235;26641;-62
2022/04/12 07:17:11;;;;;;;4.05;2.70;;;8.80;77.00;;;;;;609492;236;26819;-62
2022/04/12 07:19:38;;;;;;;4.93;2.90;;;8.80;74.80;;;;;;609263;231;26577;-62
2022/04/12 07:22:05;;;;;;;3.42;2.70;;;9.00;74.40;;;;;;609393;235;26602;-62
2022/04/12 07:24:33;;;;;;;3.55;2.28;;;9.20;78.10;;;;;;603486;236;26630;-62
2022/04/12 07:27:00;;;;;;;3.45;2.67;;;9.20;77.80;;;;;;608614;233;26739;-61
2022/04/12 07:29:27;;;;;;;3.33;2.42;;;9.30;74.50;;;;;;601566;239;26630;-62
2022/04/12 07:31:55;;;;;;;3.28;2.50;;;9.40;76.50;;;;;;604190;235;26890;-66
2022/04/12 07:34:22;;;;;;;3.70;2.65;;;9.40;72.60;;;;;;605497;235;26642;-67
2022/04/12 07:36:53;;;;;;;4.18;3.00;;;9.50;77.70;;;;;;603883;235;26920;-67
2022/04/12 07:39:17;;;;;;;2.42;2.22;;;9.70;76.30;;;;;;601859;238;26640;-66
2022/04/12 07:41:45;;;;;;;3.03;2.65;;;9.70;67.40;;;;;;606386;235;26680;-66
2022/04/12 07:44:13;;;;;;;3.75;2.50;;;9.70;67.40;;;;;;607224;233;26598;-67
2022/04/12 07:46:40;;;;;;;2.55;2.35;;;9.80;68.80;;;;;;604503;234;26883;-66
2022/04/12 07:49:08;;;;;;;6.12;2.92;;;10.00;69.50;;;;;;612907;230;26593;-66
2022/04/12 07:51:35;;;;;;;2.60;2.40;;;9.90;71.10;;;;;;608860;235;26644;-66
2022/04/12 07:54:03;;;;;;;3.45;2.90;;;10.00;64.70;;;;;;605186;236;26588;-68
2022/04/12 07:56:31;;;;;;;3.00;2.53;;;10.30;66.80;;;;;;602859;238;26605;-66
2022/04/12 07:58:58;;;;;;;2.58;2.33;;;10.30;67.00;;;;;;608056;232;26598;-66
2022/04/12 08:01:26;;;;;;;4.60;2.78;;;10.50;68.00;;;;;;604160;235;26591;-66
2022/04/12 08:03:54;;;;;;;3.05;2.75;;;10.70;68.10;;;;;;612346;234;26588;-67
2022/04/12 08:06:22;;;;;;;29.35;8.00;;;10.90;75.30;;;;;;601954;236;26600;-68
2022/04/12 08:08:50;;;;;;;26.73;7.80;;;11.10;69.40;;;;;;602986;236;26609;-68
2022/04/12 08:11:19;;;;;;;25.12;6.95;;;11.20;63.40;;;;;;604882;235;26583;-67
2022/04/12 08:13:46;;;;;;;11.55;4.05;;;11.20;63.30;;;;;;605250;236;26596;-65
2022/04/12 08:16:15;;;;;;;2.20;2.00;;;11.30;62.50;;;;;;604189;235;26862;-67
2022/04/12 08:18:41;;;;;;;3.50;2.30;;;11.50;66.60;;;;;;604781;235;26581;-67
2022/04/12 08:21:08;;;;;;;28.52;7.45;;;11.50;62.80;;;;;;602830;236;26869;-67
2022/04/12 08:23:36;;;;;;;3.00;2.70;;;11.70;59.70;;;;;;604179;235;26636;-66
2022/04/12 08:26:04;;;;;;;2.55;2.00;;;11.80;59.90;;;;;;605447;235;26659;-66
2022/04/12 08:28:32;;;;;;;5.20;3.20;;;11.80;59.80;;;;;;603803;234;26856;-66
2022/04/12 08:30:59;;;;;;;7.22;3.12;;;12.00;63.00;;;;;;600260;236;26566;-66
2022/04/12 08:33:27;;;;;;;2.17;2.00;;;12.20;61.60;;;;;;605802;235;26824;-67
2022/04/12 08:35:54;;;;;;;5.07;2.47;;;12.40;57.70;;;;;;606536;235;26886;-66
2022/04/12 08:38:21;;;;;;;2.28;2.00;;;12.50;60.70;;;;;;608170;235;26594;-66
2022/04/12 08:40:48;;;;;;;2.72;2.30;;;12.70;60.10;;;;;;605126;235;26844;-67
2022/04/12 08:43:15;;;;;;;2.20;2.00;;;13.00;56.90;;;;;;603426;236;26558;-67
2022/04/12 08:45:45;;;;;;;2.92;2.33;;;13.20;59.70;;;;;;603087;235;26692;-67
2022/04/12 08:48:11;;;;;;;2.25;1.98;;;13.60;55.50;;;;;;607220;235;26643;-67
2022/04/12 08:50:39;;;;;;;2.40;1.87;;;13.60;55.60;;;;;;605994;234;26627;-67
2022/04/12 08:53:05;;;;;;;3.03;1.77;;;13.80;54.90;;;;;;605484;236;26825;-67
2022/04/12 08:55:32;;;;;;;2.15;2.00;;;13.80;57.00;;;;;;602577;234;26869;-67
2022/04/12 08:58:00;;;;;;;2.78;2.45;;;13.90;58.30;;;;;;605273;235;26577;-67
2022/04/12 09:00:27;;;;;;;1.98;1.87;;;14.00;54.00;;;;;;605411;235;27449;-67
2022/04/12 09:02:59;;;;;;;2.20;2.00;;;14.20;55.90;;;;;;605128;234;26649;-68
2022/04/12 09:05:22;;;;;;;1.92;1.83;;;14.30;53.00;;;;;;608659;235;26583;-67
2022/04/12 09:07:49;;;;;;;2.62;2.10;;;14.30;53.00;;;;;;602625;237;26627;-68
2022/04/12 09:10:17;;;;;;;2.17;2.00;;;14.50;52.70;;;;;;604197;235;26653;-67
2022/04/12 09:12:44;;;;;;;2.08;1.92;;;14.40;52.20;;;;;;602630;235;26814;-67
2022/04/12 09:15:11;;;;;;;2.42;2.03;;;14.50;52.80;;;;;;603038;236;26614;-67
2022/04/12 09:17:39;;;;;;;2.60;2.03;;;14.60;51.30;;;;;;610473;233;26653;-67
2022/04/12 09:20:11;;;;;;;2.40;2.20;;;14.50;52.40;;;;;;604176;236;26583;-67
2022/04/12 09:22:39;;;;;;;3.03;1.77;;;14.50;52.80;;;;;;604285;236;27108;-66
2022/04/12 09:25:10;;;;;;;3.15;2.50;;;14.50;52.20;;;;;;607045;236;26653;-68
2022/04/12 09:27:35;;;;;;;2.65;2.25;;;14.30;51.60;;;;;;605397;236;26613;-69
2022/04/12 09:30:04;;;;;;;2.53;2.30;;;14.30;51.70;;;;;;606202;232;26634;-69
2022/04/12 09:32:35;;;;;;;2.00;1.90;;;14.40;52.20;;;;;;605165;235;26598;-66
2022/04/12 09:35:03;;;;;;;2.95;2.65;;;14.40;52.20;;;;;;602935;236;26847;-66
2022/04/12 09:37:30;;;;;;;1.98;1.85;;;14.40;53.20;;;;;;602264;235;26605;-66
2022/04/12 09:40:14;;;;;;;2.72;2.47;;;14.30;53.30;;;;;;605059;235;26648;-66
2022/04/12 09:42:49;;;;;;;2.50;2.30;;;14.30;53.60;;;;;;603781;235;26634;-67
2022/04/12 09:45:22;;;;;;;2.47;2.28;;;14.30;55.30;;;;;;603858;234;26637;-67
2022/04/12 09:47:48;;;;;;;2.80;2.10;;;14.40;53.10;;;;;;602544;235;26668;-67
2022/04/12 09:50:16;;;;;;;2.60;2.40;;;14.30;52.70;;;;;;602710;235;27368;-67
2022/04/12 09:52:52;;;;;;;2.55;2.12;;;14.30;52.50;;;;;;606023;236;26864;-67
2022/04/12 09:55:31;;;;;;;2.20;1.98;;;14.50;53.70;;;;;;605411;235;26634;-67
2022/04/12 09:57:58;;;;;;;3.33;2.70;;;14.50;53.20;;;;;;604078;236;26860;-66
2022/04/12 10:00:25;;;;;;;3.30;2.87;;;14.60;51.30;;;;;;602692;236;26653;-66
2022/04/12 10:02:53;;;;;;;3.55;2.40;;;14.70;51.70;;;;;;602755;237;26809;-65
2022/04/12 10:05:21;;;;;;;3.83;2.95;;;15.00;50.20;;;;;;604830;235;26570;-65
2022/04/12 10:07:49;;;;;;;3.20;2.67;;;15.10;53.80;;;;;;604333;234;26646;-66
2022/04/12 10:10:19;;;;;;;3.42;2.50;;;15.00;53.40;;;;;;603438;234;26685;-66
2022/04/12 10:12:43;;;;;;;7.10;4.65;;;15.10;51.70;;;;;;604245;234;26593;-66
2022/04/12 10:15:10;;;;;;;2.28;2.00;;;15.10;50.60;;;;;;608622;234;26972;-66
2022/04/12 10:17:38;;;;;;;3.62;2.30;;;15.20;51.10;;;;;;605185;235;26685;-66
2022/04/12 10:20:06;;;;;;;3.03;2.83;;;15.30;50.30;;;;;;602713;235;26842;-66
2022/04/12 10:22:33;;;;;;;4.40;2.28;;;15.30;52.10;;;;;;607542;236;26585;-66
2022/04/12 10:25:01;;;;;;;3.97;3.25;;;15.30;54.90;;;;;;604785;236;26881;-67
2022/04/12 10:27:28;;;;;;;2.47;2.28;;;15.60;49.50;;;;;;602081;236;26611;-66
2022/04/12 10:30:07;;;;;;;2.40;2.20;;;15.60;49.60;;;;;;606483;235;26939;-67
2022/04/12 10:32:35;;;;;;;3.45;2.28;;;15.60;49.20;;;;;;603217;236;26582;-66
2022/04/12 10:35:02;;;;;;;3.42;3.10;;;15.60;49.10;;;;;;605844;235;26583;-66
2022/04/12 10:37:29;;;;;;;2.37;2.17;;;15.60;48.80;;;;;;608497;235;27214;-66
2022/04/12 10:39:57;;;;;;;6.57;5.20;;;15.70;48.30;;;;;;604973;238;26556;-66
2022/04/12 10:42:25;;;;;;;4.55;3.42;;;15.80;48.30;;;;;;604297;235;26837;-66
2022/04/12 10:44:53;;;;;;;3.50;3.20;;;15.90;50.90;;;;;;606185;236;26625;-67
2022/04/12 10:47:27;;;;;;;3.22;2.95;;;16.00;49.40;;;;;;601537;237;26678;-67
2022/04/12 10:49:55;;;;;;;2.50;2.17;;;16.10;47.60;;;;;;602675;235;26655;-67
2022/04/12 10:52:31;;;;;;;3.60;3.30;;;16.10;51.10;;;;;;604332;235;26636;-66
2022/04/12 10:54:59;;;;;;;2.30;2.17;;;16.10;47.70;;;;;;606335;235;26648;-66
2022/04/12 10:57:27;;;;;;;3.17;2.87;;;16.30;47.60;;;;;;602306;234;26629;-66
2022/04/12 10:59:58;;;;;;;3.08;2.87;;;16.40;48.40;;;;;;608296;235;26643;-63
2022/04/12 11:02:29;;;;;;;1.90;1.80;;;16.30;48.50;;;;;;612296;235;26622;-63
2022/04/12 11:04:55;;;;;;;2.20;2.00;;;16.50;49.90;;;;;;612410;234;26653;-62
2022/04/12 11:07:31;;;;;;;2.70;2.50;;;16.50;48.10;;;;;;612432;234;26851;-63
2022/04/12 11:10:25;;;;;;;2.50;2.05;;;16.60;49.20;;;;;;612407;235;26627;-63
2022/04/12 11:13:05;;;;;;;2.10;2.00;;;16.80;48.30;;;;;;612420;234;26604;-63
2022/04/12 11:15:32;;;;;;;2.03;1.92;;;16.80;48.20;;;;;;612376;235;26636;-63
2022/04/12 11:18:10;;;;;;;1.95;1.83;;;17.00;46.40;;;;;;612307;235;26642;-63
2022/04/12 11:20:38;;;;;;;3.15;2.85;;;17.00;46.10;;;;;;613891;232;26614;-62
2022/04/12 11:23:09;;;;;;;4.00;3.40;;;17.00;47.40;;;;;;613594;234;26579;-62
2022/04/12 11:25:33;;;;;;;3.42;3.12;;;17.10;47.50;;;;;;613046;234;27219;-63
2022/04/12 11:28:01;;;;;;;6.00;5.10;;;17.30;46.90;;;;;;613277;234;26575;-63
2022/04/12 11:30:27;;;;;;;3.25;2.95;;;17.40;50.70;;;;;;613027;234;26854;-64
2022/04/12 11:32:55;;;;;;;4.20;3.80;;;17.50;45.60;;;;;;613036;230;26628;-63
2022/04/12 11:35:24;;;;;;;2.55;2.35;;;17.50;46.70;;;;;;612953;234;26606;-63
2022/04/12 11:37:51;;;;;;;3.22;2.92;;;17.50;46.70;;;;;;612875;234;26597;-64
2022/04/12 11:40:20;;;;;;;3.80;3.22;;;17.30;46.90;;;;;;611508;234;26865;-64
2022/04/12 11:42:47;;;;;;;4.07;3.65;;;17.40;50.50;;;;;;606804;236;26590;-64
2022/04/12 11:45:15;;;;;;;3.17;2.72;;;17.50;47.20;;;;;;602975;235;26604;-63
2022/04/12 11:47:44;;;;;;;2.75;2.50;;;17.50;45.60;;;;;;606191;233;26599;-63
2022/04/12 11:50:15;;;;;;;3.12;2.12;;;17.50;45.10;;;;;;604124;235;26600;-63
2022/04/12 11:52:41;;;;;;;3.47;3.17;;;17.50;45.80;;;;;;602629;238;26606;-63
2022/04/12 11:55:09;;;;;;;3.37;3.08;;;17.30;44.60;;;;;;603099;237;26590;-63
2022/04/12 11:57:37;;;;;;;2.80;2.60;;;17.60;45.80;;;;;;603223;235;26688;-63
2022/04/12 12:00:05;;;;;;;2.33;1.92;;;17.60;46.30;;;;;;604611;236;26590;-63
2022/04/12 12:02:32;;;;;;;5.28;3.00;;;17.60;45.20;;;;;;608946;235;26638;-63
2022/04/12 12:05:00;;;;;;;2.87;2.37;;;17.50;45.90;;;;;;602833;237;26815;-63
2022/04/12 12:07:27;;;;;;;4.25;3.80;;;17.70;45.30;;;;;;608045;234;26615;-63
2022/04/12 12:09:56;;;;;;;4.95;4.10;;;17.70;46.70;;;;;;602692;235;27361;-63
2022/04/12 12:12:45;;;;;;;1.73;1.62;;;17.80;46.20;;;;;;603650;238;26819;-63
2022/04/12 12:15:14;;;;;;;2.85;2.65;;;17.80;46.20;;;;;;604386;236;26651;-63
2022/04/12 12:17:44;;;;;;;2.70;2.00;;;17.70;45.80;;;;;;609787;236;26854;-60
2022/04/12 12:20:09;;;;;;;4.20;3.80;;;17.50;46.50;;;;;;603987;236;26565;-63
2022/04/12 12:22:37;;;;;;;2.03;1.92;;;17.50;46.70;;;;;;602094;237;26835;-63
2022/04/12 12:25:04;;;;;;;1.90;1.80;;;17.60;46.20;;;;;;601874;237;26854;-63
2022/04/12 12:27:32;;;;;;;5.78;5.22;;;17.70;47.60;;;;;;601910;237;26629;-63
2022/04/12 12:30:03;;;;;;;2.87;2.67;;;17.60;44.10;;;;;;601915;237;26838;-63
2022/04/12 12:32:30;;;;;;;4.07;3.78;;;17.70;44.80;;;;;;603421;237;26840;-63
2022/04/12 12:35:00;;;;;;;3.60;3.30;;;17.90;44.00;;;;;;603754;235;26554;-63
2022/04/12 12:37:27;;;;;;;3.35;3.05;;;17.90;45.80;;;;;;611086;235;26824;-63
2022/04/12 12:39:55;;;;;;;4.03;3.62;;;18.00;44.00;;;;;;611046;235;26556;-63
2022/04/12 12:42:22;;;;;;;2.58;2.37;;;18.00;44.30;;;;;;610803;236;26803;-63
2022/04/12 12:44:49;;;;;;;4.45;3.83;;;17.90;43.60;;;;;;606477;236;26572;-63
2022/04/12 12:47:16;;;;;;;4.03;3.72;;;17.70;43.50;;;;;;603406;238;26888;-63
2022/04/12 12:49:44;;;;;;;4.00;3.70;;;17.80;43.60;;;;;;601927;239;26570;-63
2022/04/12 12:52:15;;;;;;;3.95;3.55;;;17.70;43.60;;;;;;603681;236;26602;-63
2022/04/12 12:54:42;;;;;;;2.83;2.62;;;17.70;43.80;;;;;;603991;237;26611;-64
2022/04/12 12:57:09;;;;;;;3.25;3.05;;;17.80;43.20;;;;;;603505;234;26844;-63
2022/04/12 12:59:37;;;;;;;9.20;6.65;;;18.00;44.40;;;;;;605330;236;26578;-63